Weather History for KEFT - June, 2013

Change the Weather History Date:

Saturday, June 15, 2013

  Actual Average Record
Temperature  
Mean Temperature 70 °F -  
Max Temperature 82 °F 0 °F 89 °F (2007)
Min Temperature 58 °F - 42 °F (1999)
Cooling Degree Days 5    
Growing Degree Days 20 (Base 50)    
Moisture  
Dew Point 63 °F    
Average Humidity 81    
Maximum Humidity 100    
Minimum Humidity 55    
Precipitation  
Precipitation 0.27 in - - ()
Sea Level Pressure  
Sea Level Pressure 29.95 in    
Wind  
Wind Speed 8 mph (South)    
Max Wind Speed 24 mph    
Max Gust Speed 34 mph    
Visibility 10 miles    
Events Rain , Thunderstorm    
Averages and records for this station are not official NWS values.
T = Trace of Precipitation, MM = Missing Value Source: NWS Daily Summary

Daily Weather History Graph

Daily Weather History Graph

Search for Another Location

Airport or City:

Trip Planner

Search our weather history database for the weather conditions in past years. The results will help you decide how hot, cold, wet, or windy it might be!

Date:

Astronomy

Jun. 15, 2013 Rise Set
Actual Time 5:19 AM CDT 8:38 PM CDT
Civil Twilight 4:45 AM CDT 9:13 PM CDT
Nautical Twilight 3:59 AM CDT 9:58 PM CDT
Astronomical Twilight 3:04 AM CDT 10:53 PM CDT
Moon 12:02 PM CDT (6/15) 12:06 AM CDT (6/15)
Length of Visible Light 16h 27m
Length of Day
15h 18m
Waxing Crescent, 40% of the Moon is Illuminated
Jun 15
Waxing Crescent
Jun 16
First Quarter
Jun 23
Full
Jun 29
Last Quarter
Jul 8
New

Hourly Weather History & Observations

Time (CDT) Temp. Heat Index Dew Point Humidity Pressure Visibility Wind Dir Wind Speed Gust Speed Precip Events Conditions
12:15 AM 64.6 °F - 52.9 °F 66% 30.03 in 10.0 mi ESE 4.6 mph - N/A   Clear
12:35 AM 64.6 °F - 52.7 °F 65% 30.05 in 10.0 mi SSE 6.9 mph - N/A   Clear
12:55 AM 64.0 °F - 52.9 °F 67% 30.04 in 10.0 mi SE 5.8 mph - N/A   Clear
1:15 AM 63.7 °F - 52.9 °F 68% 30.04 in 10.0 mi SSE 5.8 mph - N/A   Clear
1:35 AM 63.5 °F - 52.3 °F 67% 30.01 in 10.0 mi SSE 6.9 mph - N/A   Clear
1:55 AM 62.8 °F - 52.3 °F 69% 30.00 in 10.0 mi SSE 8.1 mph - N/A   Clear
2:15 AM 63.3 °F - 52.7 °F 68% 30.01 in 10.0 mi South 5.8 mph - N/A   Mostly Cloudy
2:35 AM 63.5 °F - 52.7 °F 68% 30.03 in 10.0 mi South 6.9 mph - N/A Thunderstorm Mostly Cloudy
2:55 AM 63.7 °F - 52.7 °F 67% 30.04 in 10.0 mi SSE 5.8 mph - N/A   Overcast
3:15 AM 63.7 °F - 52.9 °F 68% 30.04 in 10.0 mi SE 5.8 mph - N/A   Overcast
3:35 AM 63.0 °F - 52.9 °F 70% 30.04 in 10.0 mi ENE 3.5 mph - N/A   Overcast
3:55 AM 62.6 °F - 52.9 °F 70% 30.04 in 10.0 mi ENE 6.9 mph - N/A   Overcast
4:15 AM 61.9 °F - 53.1 °F 73% 30.04 in 10.0 mi East 5.8 mph - N/A   Overcast
4:35 AM 61.5 °F - 56.8 °F 85% 30.03 in 10.0 mi East 5.8 mph - N/A   Overcast
4:55 AM 61.0 °F - 57.2 °F 87% 30.02 in 10.0 mi ESE 8.1 mph - N/A   Overcast
5:15 AM 60.6 °F - 58.1 °F 91% 30.03 in 10.0 mi SE 8.1 mph - N/A Rain Rain
5:35 AM 59.0 °F - 59.0 °F 100% 30.02 in 10.0 mi East 9.2 mph - 0.01 in Rain Rain
5:55 AM 58.5 °F - 58.5 °F 100% 30.01 in 10.0 mi East 9.2 mph - 0.02 in Rain Light Rain
6:15 AM 58.3 °F - 58.3 °F 100% 30.00 in 7.0 mi East 10.4 mph - N/A   Mostly Cloudy
6:35 AM 58.3 °F - 58.3 °F 100% 29.99 in 7.0 mi ESE 6.9 mph - N/A   Mostly Cloudy
6:55 AM 59.0 °F - 59.0 °F 100% 29.98 in 10.0 mi ESE 5.8 mph - N/A   Scattered Clouds
7:15 AM 59.4 °F - 59.4 °F 100% 29.97 in 10.0 mi East 6.9 mph - N/A   Mostly Cloudy
7:35 AM 59.9 °F - 59.9 °F 100% 29.98 in 10.0 mi SE 5.8 mph - N/A   Light Drizzle
7:55 AM 60.3 °F - 60.3 °F 100% 29.98 in 10.0 mi SE 6.9 mph - N/A Rain Light Rain
8:15 AM 60.8 °F - 60.8 °F 100% 29.98 in 7.0 mi South 5.8 mph - N/A Rain Rain
8:35 AM 61.3 °F - 61.3 °F 100% 29.99 in 10.0 mi South 6.9 mph - N/A Rain Rain
8:55 AM 61.3 °F - 61.3 °F 100% 29.99 in 7.0 mi South 10.4 mph - 0.02 in Rain Light Rain
9:15 AM 61.9 °F - 61.9 °F 100% 30.00 in 7.0 mi South 9.2 mph - 0.01 in Rain Light Rain
9:35 AM 61.9 °F - 61.9 °F 100% 30.00 in 7.0 mi SSW 8.1 mph - 0.03 in Rain Rain
9:55 AM 63.0 °F - 63.0 °F 100% 29.98 in 7.0 mi South 11.5 mph - 0.04 in   Drizzle
10:15 AM 64.2 °F - 64.2 °F 100% 29.97 in 10.0 mi South 11.5 mph - N/A   Mostly Cloudy
10:35 AM 66.4 °F - 66.4 °F 100% 29.96 in 10.0 mi South 13.8 mph - N/A   Clear
10:55 AM 67.8 °F - 67.1 °F 98% 29.97 in 10.0 mi SSW 16.1 mph - N/A   Clear
11:15 AM 69.4 °F - 68.9 °F 98% 29.97 in 10.0 mi SSW 13.8 mph - N/A   Clear
11:35 AM 72.3 °F - 69.6 °F 91% 29.97 in 10.0 mi SSW 13.8 mph - N/A   Clear
11:55 AM 74.1 °F - 69.1 °F 84% 29.96 in 10.0 mi SSW 11.5 mph - N/A   Scattered Clouds
12:15 PM 76.8 °F - 66.6 °F 70% 29.95 in 10.0 mi SSW 12.7 mph - N/A   Mostly Cloudy
12:35 PM 76.5 °F - 65.5 °F 69% 29.96 in 10.0 mi South 10.4 mph - N/A   Mostly Cloudy
12:55 PM 76.6 °F - 66.0 °F 70% 29.96 in 10.0 mi SSW 10.4 mph - N/A   Overcast
1:15 PM 77.7 °F - 65.5 °F 66% 29.97 in 10.0 mi SW 12.7 mph - N/A   Mostly Cloudy
1:35 PM 77.2 °F - 64.8 °F 65% 29.98 in 10.0 mi SW 13.8 mph 19.6 mph N/A   Overcast
1:55 PM 77.5 °F - 64.2 °F 63% 29.98 in 10.0 mi SW 10.4 mph - N/A   Overcast
2:15 PM 78.8 °F - 64.2 °F 61% 29.97 in 10.0 mi WSW 11.5 mph 18.4 mph N/A   Mostly Cloudy
2:35 PM 78.6 °F - 64.6 °F 62% 29.96 in 10.0 mi SW 9.2 mph - N/A   Mostly Cloudy
2:55 PM 80.6 °F 82.2 °F 64.2 °F 57% 29.94 in 10.0 mi WSW 5.8 mph - N/A   Scattered Clouds
3:15 PM 81.3 °F 82.7 °F 63.7 °F 55% 29.94 in 10.0 mi WSW 9.2 mph - N/A   Clear
3:35 PM 81.5 °F 83.1 °F 64.6 °F 56% 29.93 in 10.0 mi SSW 6.9 mph - N/A   Mostly Cloudy
3:55 PM 82.0 °F 83.6 °F 64.4 °F 55% 29.93 in 10.0 mi SW 9.2 mph - N/A   Mostly Cloudy
4:15 PM 82.2 °F 83.8 °F 64.4 °F 55% 29.91 in 10.0 mi South 8.1 mph - N/A   Mostly Cloudy
4:35 PM 81.7 °F 83.5 °F 65.1 °F 57% 29.89 in 10.0 mi South 11.5 mph - N/A   Scattered Clouds
4:55 PM 82.0 °F 83.6 °F 64.6 °F 55% 29.90 in 10.0 mi SW 13.8 mph - N/A   Scattered Clouds
5:15 PM 79.9 °F - 64.9 °F 60% 29.90 in 10.0 mi SSW 12.7 mph - N/A   Overcast
5:35 PM 77.2 °F - 73.0 °F 87% 29.86 in 7.0 mi South 9.2 mph - 0.01 in Rain Light Rain
5:55 PM 78.3 °F - 69.8 °F 75% 29.85 in 10.0 mi South 11.5 mph - 0.01 in   Scattered Clouds
6:15 PM 78.3 °F - 66.4 °F 67% 29.85 in 10.0 mi SSW 12.7 mph - N/A   Clear
6:35 PM 79.2 °F - 66.0 °F 64% 29.84 in 10.0 mi South 11.5 mph 16.1 mph N/A   Clear
6:55 PM 77.4 °F - 65.5 °F 67% 29.84 in 10.0 mi SSW 11.5 mph - N/A   Scattered Clouds
7:15 PM 76.6 °F - 65.5 °F 68% 29.86 in 10.0 mi SSW 10.4 mph - N/A   Mostly Cloudy
7:35 PM 76.1 °F - 65.5 °F 70% 29.86 in 10.0 mi SSW 11.5 mph - N/A   Scattered Clouds
7:55 PM 75.7 °F - 68.2 °F 77% 29.86 in 10.0 mi SW 10.4 mph - N/A Rain Rain
8:15 PM 74.8 °F - 71.6 °F 90% 29.90 in 10.0 mi SW 13.8 mph 19.6 mph N/A   Mostly Cloudy
8:35 PM 74.8 °F - 71.6 °F 90% 29.88 in 10.0 mi SW 13.8 mph - N/A   Mostly Cloudy
8:55 PM 74.3 °F - 72.5 °F 94% 29.87 in 10.0 mi SSW 10.4 mph - 0.01 in Rain Rain
9:15 PM 72.9 °F - 72.7 °F 99% 29.88 in 10.0 mi SSW 9.2 mph - N/A   Scattered Clouds
9:35 PM 72.7 °F - 72.7 °F 100% 29.89 in 10.0 mi SSW 9.2 mph - N/A   Scattered Clouds
9:55 PM 72.7 °F - 72.7 °F 100% 29.89 in 10.0 mi SSW 10.4 mph - N/A   Overcast
10:15 PM 73.0 °F - 73.0 °F 100% 29.89 in 10.0 mi SW 9.2 mph - N/A   Overcast
10:35 PM 73.0 °F - 73.0 °F 100% 29.89 in 10.0 mi SW 12.7 mph - N/A   Overcast
10:55 PM 73.2 °F - 72.9 °F 99% 29.89 in 10.0 mi SW 11.5 mph - N/A   Scattered Clouds
11:15 PM 73.6 °F - 73.4 °F 99% 29.90 in 10.0 mi SW 15.0 mph - N/A   Mostly Cloudy
11:35 PM 73.6 °F - 73.6 °F 100% 29.89 in 10.0 mi SW 18.4 mph 21.9 mph 0.01 in Rain , Thunderstorm Light Thunderstorms and Rain
11:55 PM 72.0 °F - 71.8 °F 99% 29.91 in 3.0 mi SW 24.2 mph 34.5 mph 0.17 in Rain , Thunderstorm Heavy Thunderstorms and Rain